Austin, UT

4:15 PM MDT on September 30, 2014 (GMT -0600)
Putter Butt Farms | Change Station
CLOSE
Current Station
Personal Weather Station
Location: Monroe, UT
Elevation: 5322 ft
Nearby Weather Stations

Elev 5322 ft 38.65 °N, 112.14 °W | Updated 26 seconds ago

Clear
Clear
68.4 °F
Feels Like 68.4 °F
N
2.8
Wind Variable Wind from West
Gusts 6.9 mph

Today
High -- | Low -- °F
--% Chance of Precip.
Yesterday
High -- | Low -- °F
Precip. -- in
7:23 AM 7:12 PM
Waxing Crescent, 40% visible
Pressure 29.81 in
Visibility 10.0 miles
Clouds Clear
Dew Point 34 °F
Humidity 28%
Rainfall 0.00 in
Snow Depth 1 in , 2 in , 0 in
UV 3.1 out of 12
Pollen 4.10 out of 12
Air Quality Not available.
Flu Activity Not available.
METAR KMLF 302152Z AUTO 18007KT 10SM CLR 21/03 A2993 RMK AO2 SLP094 T02060033

More Conditions Fewer Conditions

Pressure 29.81 in
Visibility 10.0 miles
Clouds Clear
Dew Point 34 °F
Humidity 28%
Rainfall 0.00 in
Snow Depth 1 in , 2 in , 0 in
UV 3.1 out of 12
Pollen 4.10 out of 12
Air Quality Not available.
Flu Activity Not available.
METAR KMLF 302152Z AUTO 18007KT 10SM CLR 21/03 A2993 RMK AO2 SLP094 T02060033

More Conditions Fewer Conditions

10-Day Weather Forecast

Almanac

Astronomy

Sep. 30, 2014 Rise Set
Actual Time 7:23 AM MDT 7:12 PM MDT
Civil Twilight 6:57 AM MDT 7:39 PM MDT
Nautical Twilight 6:26 AM MDT 8:09 PM MDT
Astronomical Twilight 5:55 AM MDT 8:40 PM MDT
Moon 1:32 PM MDT 11:49 PM MDT
Length of Visible Light 12h 42m
Length of Day
11h 49m
Tomorrow will be 2m 29s shorter.
Waxing Crescent, 40% of the Moon is Illuminated
Today
Waxing Crescent
Oct 1
First Quarter
Oct 8
Full
Oct 15
Last Quarter
Oct 23
New

Today's Extremes

State Highs State Lows

Community

WunderPhotos

Upload Photos

1,757,767 photos uploaded!

Nearby

Snow Depth

Station Depth Elevation
Ben Lomond Peak 1 in 8000 ft
Lakefork Basin 2 in 10900 ft
Dry Fork 0 in 7160 ft
Horse Ridge 0 in 8160 ft
Lakefork #1 1 in 10100 ft

Earthquake Activity

City Distance Mag. Time & Date
No recent earthquake activity has been reported nearby.
Minimum magnitude displayed is 2.5.

Coastal Water Temperatures

Place Temperature
No Stations Reporting

Nearby Weather Stations